sensor_id;sensor_type;location;lat;lon;timestamp;P1;durP1;ratioP1;P2;durP2;ratioP2
2620;SDS011;1320;48.128;11.592;2023-04-03T00:01:30;11.98;;;8.27;;
2620;SDS011;1320;48.128;11.592;2023-04-03T00:03:55;13.13;;;8.33;;
2620;SDS011;1320;48.128;11.592;2023-04-03T00:06:21;14.27;;;8.60;;
2620;SDS011;1320;48.128;11.592;2023-04-03T00:08:48;12.82;;;7.90;;
2620;SDS011;1320;48.128;11.592;2023-04-03T00:11:14;11.27;;;8.05;;
2620;SDS011;1320;48.128;11.592;2023-04-03T00:13:40;10.10;;;7.70;;
2620;SDS011;1320;48.128;11.592;2023-04-03T00:16:07;12.80;;;7.63;;
2620;SDS011;1320;48.128;11.592;2023-04-03T00:18:34;11.20;;;8.73;;
2620;SDS011;1320;48.128;11.592;2023-04-03T00:21:00;16.58;;;8.23;;
2620;SDS011;1320;48.128;11.592;2023-04-03T00:23:26;10.70;;;8.00;;
2620;SDS011;1320;48.128;11.592;2023-04-03T00:25:52;12.13;;;8.13;;
2620;SDS011;1320;48.128;11.592;2023-04-03T00:28:18;10.43;;;7.30;;
2620;SDS011;1320;48.128;11.592;2023-04-03T00:30:44;9.15;;;6.75;;
2620;SDS011;1320;48.128;11.592;2023-04-03T00:33:12;14.93;;;8.47;;
2620;SDS011;1320;48.128;11.592;2023-04-03T00:35:39;12.05;;;7.53;;
2620;SDS011;1320;48.128;11.592;2023-04-03T00:38:05;10.30;;;7.90;;
2620;SDS011;1320;48.128;11.592;2023-04-03T00:40:35;9.10;;;7.28;;
2620;SDS011;1320;48.128;11.592;2023-04-03T00:43:04;10.35;;;7.45;;
2620;SDS011;1320;48.128;11.592;2023-04-03T00:45:40;9.13;;;6.90;;
2620;SDS011;1320;48.128;11.592;2023-04-03T00:48:10;10.55;;;6.75;;
2620;SDS011;1320;48.128;11.592;2023-04-03T00:50:42;10.13;;;6.65;;
2620;SDS011;1320;48.128;11.592;2023-04-03T00:53:11;7.90;;;7.10;;
2620;SDS011;1320;48.128;11.592;2023-04-03T00:55:41;11.75;;;7.88;;
2620;SDS011;1320;48.128;11.592;2023-04-03T00:58:08;9.60;;;7.00;;
2620;SDS011;1320;48.128;11.592;2023-04-03T01:00:35;9.32;;;7.43;;
2620;SDS011;1320;48.128;11.592;2023-04-03T01:03:03;9.43;;;6.53;;
2620;SDS011;1320;48.128;11.592;2023-04-03T01:05:29;10.33;;;7.20;;
2620;SDS011;1320;48.128;11.592;2023-04-03T01:07:55;10.60;;;7.13;;
2620;SDS011;1320;48.128;11.592;2023-04-03T01:10:22;9.82;;;6.07;;
2620;SDS011;1320;48.128;11.592;2023-04-03T01:12:50;13.40;;;7.15;;
2620;SDS011;1320;48.128;11.592;2023-04-03T01:15:23;10.00;;;6.50;;
2620;SDS011;1320;48.128;11.592;2023-04-03T01:17:52;10.38;;;7.20;;
2620;SDS011;1320;48.128;11.592;2023-04-03T01:22:58;9.02;;;6.40;;
2620;SDS011;1320;48.128;11.592;2023-04-03T01:25:50;7.75;;;5.85;;
2620;SDS011;1320;48.128;11.592;2023-04-03T01:33:38;11.50;;;7.82;;
2620;SDS011;1320;48.128;11.592;2023-04-03T01:36:04;10.07;;;6.40;;
2620;SDS011;1320;48.128;11.592;2023-04-03T01:38:31;9.90;;;6.00;;
2620;SDS011;1320;48.128;11.592;2023-04-03T01:40:56;11.40;;;7.07;;
2620;SDS011;1320;48.128;11.592;2023-04-03T01:43:22;8.97;;;6.63;;
2620;SDS011;1320;48.128;11.592;2023-04-03T01:45:48;10.93;;;7.90;;
2620;SDS011;1320;48.128;11.592;2023-04-03T01:48:15;10.88;;;7.00;;
2620;SDS011;1320;48.128;11.592;2023-04-03T01:50:41;17.90;;;7.25;;
2620;SDS011;1320;48.128;11.592;2023-04-03T01:53:07;10.90;;;6.83;;
2620;SDS011;1320;48.128;11.592;2023-04-03T01:55:32;10.43;;;6.63;;
2620;SDS011;1320;48.128;11.592;2023-04-03T01:57:58;8.90;;;6.67;;
2620;SDS011;1320;48.128;11.592;2023-04-03T02:00:24;9.40;;;6.67;;
2620;SDS011;1320;48.128;11.592;2023-04-03T02:02:50;8.20;;;6.30;;
2620;SDS011;1320;48.128;11.592;2023-04-03T02:05:15;7.40;;;6.33;;
2620;SDS011;1320;48.128;11.592;2023-04-03T02:07:41;9.50;;;7.53;;
2620;SDS011;1320;48.128;11.592;2023-04-03T02:10:07;9.23;;;6.93;;
2620;SDS011;1320;48.128;11.592;2023-04-03T02:12:33;8.38;;;5.72;;
2620;SDS011;1320;48.128;11.592;2023-04-03T02:14:58;8.70;;;6.60;;
2620;SDS011;1320;48.128;11.592;2023-04-03T02:17:24;11.57;;;6.47;;
2620;SDS011;1320;48.128;11.592;2023-04-03T02:19:50;9.83;;;7.10;;
2620;SDS011;1320;48.128;11.592;2023-04-03T02:22:15;11.30;;;7.03;;
2620;SDS011;1320;48.128;11.592;2023-04-03T02:28:03;9.95;;;7.32;;
2620;SDS011;1320;48.128;11.592;2023-04-03T02:30:29;7.72;;;6.20;;
2620;SDS011;1320;48.128;11.592;2023-04-03T02:32:55;9.53;;;7.03;;
2620;SDS011;1320;48.128;11.592;2023-04-03T02:35:21;9.87;;;6.80;;
2620;SDS011;1320;48.128;11.592;2023-04-03T02:37:47;8.80;;;5.67;;
2620;SDS011;1320;48.128;11.592;2023-04-03T02:40:12;9.27;;;6.20;;
2620;SDS011;1320;48.128;11.592;2023-04-03T02:42:38;10.33;;;7.27;;
2620;SDS011;1320;48.128;11.592;2023-04-03T02:45:04;9.60;;;7.07;;
2620;SDS011;1320;48.128;11.592;2023-04-03T02:47:30;8.85;;;5.68;;
2620;SDS011;1320;48.128;11.592;2023-04-03T02:49:56;9.20;;;6.13;;
2620;SDS011;1320;48.128;11.592;2023-04-03T02:52:21;9.00;;;6.00;;
2620;SDS011;1320;48.128;11.592;2023-04-03T02:54:47;8.77;;;5.87;;
2620;SDS011;1320;48.128;11.592;2023-04-03T02:57:13;8.50;;;5.77;;
2620;SDS011;1320;48.128;11.592;2023-04-03T02:59:39;7.67;;;5.53;;
2620;SDS011;1320;48.128;11.592;2023-04-03T03:02:06;6.70;;;5.20;;
2620;SDS011;1320;48.128;11.592;2023-04-03T03:04:32;10.07;;;6.22;;
2620;SDS011;1320;48.128;11.592;2023-04-03T03:06:58;9.90;;;6.30;;
2620;SDS011;1320;48.128;11.592;2023-04-03T03:09:24;7.40;;;5.93;;
2620;SDS011;1320;48.128;11.592;2023-04-03T03:11:51;6.72;;;5.20;;
2620;SDS011;1320;48.128;11.592;2023-04-03T03:14:17;9.43;;;4.93;;
2620;SDS011;1320;48.128;11.592;2023-04-03T03:16:43;6.93;;;5.37;;
2620;SDS011;1320;48.128;11.592;2023-04-03T03:19:09;6.78;;;5.63;;
2620;SDS011;1320;48.128;11.592;2023-04-03T03:21:35;5.90;;;4.93;;
2620;SDS011;1320;48.128;11.592;2023-04-03T03:24:00;7.10;;;4.90;;
2620;SDS011;1320;48.128;11.592;2023-04-03T03:26:26;7.90;;;5.37;;
2620;SDS011;1320;48.128;11.592;2023-04-03T03:28:52;5.93;;;4.40;;
2620;SDS011;1320;48.128;11.592;2023-04-03T03:31:17;5.80;;;4.73;;
2620;SDS011;1320;48.128;11.592;2023-04-03T03:33:43;6.70;;;4.40;;
2620;SDS011;1320;48.128;11.592;2023-04-03T03:36:09;8.50;;;5.20;;
2620;SDS011;1320;48.128;11.592;2023-04-03T03:38:35;5.95;;;4.35;;
2620;SDS011;1320;48.128;11.592;2023-04-03T03:41:01;6.43;;;4.63;;
2620;SDS011;1320;48.128;11.592;2023-04-03T03:43:27;7.93;;;4.97;;
2620;SDS011;1320;48.128;11.592;2023-04-03T03:45:53;6.25;;;4.50;;
2620;SDS011;1320;48.128;11.592;2023-04-03T03:48:20;6.05;;;4.43;;
2620;SDS011;1320;48.128;11.592;2023-04-03T03:50:46;6.40;;;4.40;;
2620;SDS011;1320;48.128;11.592;2023-04-03T03:53:12;6.18;;;4.40;;
2620;SDS011;1320;48.128;11.592;2023-04-03T03:55:38;7.10;;;4.53;;
2620;SDS011;1320;48.128;11.592;2023-04-03T03:58:04;6.10;;;4.25;;
2620;SDS011;1320;48.128;11.592;2023-04-03T04:00:30;6.10;;;4.30;;
2620;SDS011;1320;48.128;11.592;2023-04-03T04:02:55;7.60;;;5.03;;
2620;SDS011;1320;48.128;11.592;2023-04-03T04:05:21;4.80;;;3.53;;
2620;SDS011;1320;48.128;11.592;2023-04-03T04:07:47;6.22;;;4.18;;
2620;SDS011;1320;48.128;11.592;2023-04-03T04:10:13;4.90;;;3.80;;
2620;SDS011;1320;48.128;11.592;2023-04-03T04:12:39;5.97;;;4.50;;
2620;SDS011;1320;48.128;11.592;2023-04-03T04:15:05;5.43;;;4.10;;
2620;SDS011;1320;48.128;11.592;2023-04-03T04:17:31;7.65;;;4.82;;
2620;SDS011;1320;48.128;11.592;2023-04-03T04:19:56;5.50;;;3.40;;
2620;SDS011;1320;48.128;11.592;2023-04-03T04:22:22;6.73;;;3.57;;
2620;SDS011;1320;48.128;11.592;2023-04-03T04:24:48;4.73;;;3.60;;
2620;SDS011;1320;48.128;11.592;2023-04-03T04:27:14;4.30;;;3.60;;
2620;SDS011;1320;48.128;11.592;2023-04-03T04:29:40;5.45;;;3.92;;
2620;SDS011;1320;48.128;11.592;2023-04-03T04:32:06;5.50;;;3.87;;
2620;SDS011;1320;48.128;11.592;2023-04-03T04:34:33;4.85;;;3.75;;
2620;SDS011;1320;48.128;11.592;2023-04-03T04:36:59;8.83;;;4.47;;
2620;SDS011;1320;48.128;11.592;2023-04-03T04:39:25;6.13;;;4.10;;
2620;SDS011;1320;48.128;11.592;2023-04-03T04:41:51;5.57;;;4.70;;
2620;SDS011;1320;48.128;11.592;2023-04-03T04:44:16;7.70;;;4.77;;
2620;SDS011;1320;48.128;11.592;2023-04-03T04:46:42;6.30;;;3.97;;
2620;SDS011;1320;48.128;11.592;2023-04-03T04:49:08;5.67;;;4.70;;
2620;SDS011;1320;48.128;11.592;2023-04-03T04:51:33;4.90;;;4.00;;
2620;SDS011;1320;48.128;11.592;2023-04-03T04:53:59;4.70;;;4.23;;
2620;SDS011;1320;48.128;11.592;2023-04-03T04:56:25;6.43;;;4.80;;
2620;SDS011;1320;48.128;11.592;2023-04-03T04:58:51;7.72;;;4.03;;
2620;SDS011;1320;48.128;11.592;2023-04-03T05:01:16;6.17;;;4.50;;
2620;SDS011;1320;48.128;11.592;2023-04-03T05:03:43;5.18;;;4.00;;
2620;SDS011;1320;48.128;11.592;2023-04-03T05:06:09;7.90;;;4.23;;
2620;SDS011;1320;48.128;11.592;2023-04-03T05:08:35;7.43;;;4.10;;
2620;SDS011;1320;48.128;11.592;2023-04-03T05:11:00;5.30;;;4.67;;
2620;SDS011;1320;48.128;11.592;2023-04-03T05:13:26;5.10;;;3.73;;
2620;SDS011;1320;48.128;11.592;2023-04-03T05:15:52;5.40;;;4.10;;
2620;SDS011;1320;48.128;11.592;2023-04-03T05:18:17;6.50;;;4.60;;
2620;SDS011;1320;48.128;11.592;2023-04-03T05:20:43;6.10;;;4.23;;
2620;SDS011;1320;48.128;11.592;2023-04-03T05:23:09;6.47;;;4.53;;
2620;SDS011;1320;48.128;11.592;2023-04-03T05:25:39;5.85;;;4.80;;
2620;SDS011;1320;48.128;11.592;2023-04-03T05:28:04;6.05;;;4.00;;
2620;SDS011;1320;48.128;11.592;2023-04-03T05:30:31;5.47;;;4.47;;
2620;SDS011;1320;48.128;11.592;2023-04-03T05:32:57;7.20;;;4.80;;
2620;SDS011;1320;48.128;11.592;2023-04-03T05:35:24;10.50;;;4.07;;
2620;SDS011;1320;48.128;11.592;2023-04-03T05:37:50;7.80;;;4.60;;
2620;SDS011;1320;48.128;11.592;2023-04-03T05:40:16;9.05;;;6.80;;
2620;SDS011;1320;48.128;11.592;2023-04-03T05:42:43;6.30;;;5.00;;
2620;SDS011;1320;48.128;11.592;2023-04-03T05:45:09;7.27;;;5.33;;
2620;SDS011;1320;48.128;11.592;2023-04-03T05:47:35;9.50;;;4.55;;
2620;SDS011;1320;48.128;11.592;2023-04-03T05:50:01;5.40;;;4.23;;
2620;SDS011;1320;48.128;11.592;2023-04-03T05:52:27;7.13;;;4.80;;
2620;SDS011;1320;48.128;11.592;2023-04-03T05:54:55;6.18;;;4.15;;
2620;SDS011;1320;48.128;11.592;2023-04-03T05:57:21;5.93;;;4.80;;
2620;SDS011;1320;48.128;11.592;2023-04-03T05:59:47;5.70;;;4.50;;
2620;SDS011;1320;48.128;11.592;2023-04-03T06:05:36;13.32;;;4.95;;
2620;SDS011;1320;48.128;11.592;2023-04-03T06:08:02;7.17;;;4.50;;
2620;SDS011;1320;48.128;11.592;2023-04-03T06:10:28;6.15;;;3.95;;
2620;SDS011;1320;48.128;11.592;2023-04-03T06:12:54;6.10;;;4.50;;
2620;SDS011;1320;48.128;11.592;2023-04-03T06:15:19;9.90;;;4.30;;
2620;SDS011;1320;48.128;11.592;2023-04-03T06:17:46;5.55;;;3.80;;
2620;SDS011;1320;48.128;11.592;2023-04-03T06:20:12;7.20;;;4.07;;
2620;SDS011;1320;48.128;11.592;2023-04-03T06:22:38;5.75;;;4.25;;
2620;SDS011;1320;48.128;11.592;2023-04-03T06:25:04;5.93;;;4.65;;
2620;SDS011;1320;48.128;11.592;2023-04-03T06:27:31;6.35;;;3.55;;
2620;SDS011;1320;48.128;11.592;2023-04-03T06:29:56;7.67;;;5.47;;
2620;SDS011;1320;48.128;11.592;2023-04-03T06:32:22;8.80;;;4.60;;
2620;SDS011;1320;48.128;11.592;2023-04-03T06:34:48;5.37;;;4.17;;
2620;SDS011;1320;48.128;11.592;2023-04-03T06:37:17;10.20;;;4.80;;
2620;SDS011;1320;48.128;11.592;2023-04-03T06:39:45;7.50;;;3.95;;
2620;SDS011;1320;48.128;11.592;2023-04-03T06:42:11;8.67;;;5.53;;
2620;SDS011;1320;48.128;11.592;2023-04-03T06:44:37;6.97;;;4.80;;
2620;SDS011;1320;48.128;11.592;2023-04-03T06:47:02;7.73;;;5.00;;
2620;SDS011;1320;48.128;11.592;2023-04-03T06:49:28;6.10;;;4.30;;
2620;SDS011;1320;48.128;11.592;2023-04-03T06:51:54;6.60;;;4.60;;
2620;SDS011;1320;48.128;11.592;2023-04-03T06:54:21;5.95;;;4.07;;
2620;SDS011;1320;48.128;11.592;2023-04-03T06:56:47;8.25;;;4.75;;
2620;SDS011;1320;48.128;11.592;2023-04-03T06:59:13;6.10;;;4.60;;
2620;SDS011;1320;48.128;11.592;2023-04-03T07:01:39;9.77;;;4.60;;
2620;SDS011;1320;48.128;11.592;2023-04-03T07:04:06;12.73;;;4.72;;
2620;SDS011;1320;48.128;11.592;2023-04-03T07:06:32;6.80;;;4.75;;
2620;SDS011;1320;48.128;11.592;2023-04-03T07:08:59;8.43;;;4.95;;
2620;SDS011;1320;48.128;11.592;2023-04-03T07:11:25;6.20;;;4.45;;
2620;SDS011;1320;48.128;11.592;2023-04-03T07:13:51;6.35;;;4.72;;
2620;SDS011;1320;48.128;11.592;2023-04-03T07:16:19;6.95;;;5.18;;
2620;SDS011;1320;48.128;11.592;2023-04-03T07:18:45;8.98;;;4.53;;
2620;SDS011;1320;48.128;11.592;2023-04-03T07:21:11;12.85;;;11.10;;
2620;SDS011;1320;48.128;11.592;2023-04-03T07:23:37;7.43;;;5.35;;
2620;SDS011;1320;48.128;11.592;2023-04-03T07:26:04;6.55;;;4.55;;
2620;SDS011;1320;48.128;11.592;2023-04-03T07:28:29;9.57;;;5.50;;
2620;SDS011;1320;48.128;11.592;2023-04-03T07:31:00;9.00;;;5.23;;
2620;SDS011;1320;48.128;11.592;2023-04-03T07:33:25;7.35;;;4.82;;
2620;SDS011;1320;48.128;11.592;2023-04-03T07:35:51;9.53;;;5.23;;
2620;SDS011;1320;48.128;11.592;2023-04-03T07:38:17;10.38;;;5.38;;
2620;SDS011;1320;48.128;11.592;2023-04-03T07:40:47;9.50;;;5.40;;
2620;SDS011;1320;48.128;11.592;2023-04-03T07:43:14;8.55;;;5.15;;
2620;SDS011;1320;48.128;11.592;2023-04-03T07:45:41;5.27;;;4.77;;
2620;SDS011;1320;48.128;11.592;2023-04-03T07:48:08;7.35;;;4.80;;
2620;SDS011;1320;48.128;11.592;2023-04-03T07:50:35;9.38;;;6.60;;
2620;SDS011;1320;48.128;11.592;2023-04-03T07:53:01;8.00;;;5.43;;
2620;SDS011;1320;48.128;11.592;2023-04-03T07:55:27;7.55;;;5.68;;
2620;SDS011;1320;48.128;11.592;2023-04-03T07:57:53;11.90;;;5.90;;
2620;SDS011;1320;48.128;11.592;2023-04-03T08:00:20;7.93;;;5.82;;
2620;SDS011;1320;48.128;11.592;2023-04-03T08:02:46;8.70;;;5.88;;
2620;SDS011;1320;48.128;11.592;2023-04-03T08:05:16;6.78;;;5.68;;
2620;SDS011;1320;48.128;11.592;2023-04-03T08:07:45;8.13;;;5.90;;
2620;SDS011;1320;48.128;11.592;2023-04-03T08:10:11;8.45;;;6.32;;
2620;SDS011;1320;48.128;11.592;2023-04-03T08:12:37;7.90;;;5.40;;
2620;SDS011;1320;48.128;11.592;2023-04-03T08:15:03;10.10;;;6.57;;
2620;SDS011;1320;48.128;11.592;2023-04-03T08:17:30;10.35;;;5.95;;
2620;SDS011;1320;48.128;11.592;2023-04-03T08:19:55;8.40;;;6.27;;
2620;SDS011;1320;48.128;11.592;2023-04-03T08:22:21;10.17;;;6.80;;
2620;SDS011;1320;48.128;11.592;2023-04-03T08:24:47;9.70;;;5.87;;
2620;SDS011;1320;48.128;11.592;2023-04-03T08:27:12;9.37;;;7.17;;
2620;SDS011;1320;48.128;11.592;2023-04-03T08:29:38;13.47;;;7.13;;
2620;SDS011;1320;48.128;11.592;2023-04-03T08:32:04;12.83;;;6.50;;
2620;SDS011;1320;48.128;11.592;2023-04-03T08:34:30;8.05;;;5.95;;
2620;SDS011;1320;48.128;11.592;2023-04-03T08:36:59;8.00;;;6.32;;
2620;SDS011;1320;48.128;11.592;2023-04-03T08:39:28;9.70;;;5.50;;
2620;SDS011;1320;48.128;11.592;2023-04-03T08:41:55;8.50;;;5.67;;
2620;SDS011;1320;48.128;11.592;2023-04-03T08:47:28;7.80;;;5.50;;
2620;SDS011;1320;48.128;11.592;2023-04-03T08:49:59;7.72;;;6.50;;
2620;SDS011;1320;48.128;11.592;2023-04-03T08:52:43;6.57;;;5.47;;
2620;SDS011;1320;48.128;11.592;2023-04-03T08:57:48;8.38;;;5.88;;
2620;SDS011;1320;48.128;11.592;2023-04-03T09:00:19;7.05;;;5.75;;
2620;SDS011;1320;48.128;11.592;2023-04-03T09:02:48;6.60;;;5.17;;
2620;SDS011;1320;48.128;11.592;2023-04-03T09:05:20;12.03;;;5.97;;
2620;SDS011;1320;48.128;11.592;2023-04-03T09:10:49;7.20;;;5.90;;
2620;SDS011;1320;48.128;11.592;2023-04-03T09:18:57;7.10;;;5.50;;
2620;SDS011;1320;48.128;11.592;2023-04-03T09:21:48;11.30;;;6.03;;
2620;SDS011;1320;48.128;11.592;2023-04-03T09:24:14;7.00;;;6.30;;
2620;SDS011;1320;48.128;11.592;2023-04-03T09:26:44;10.57;;;6.40;;
2620;SDS011;1320;48.128;11.592;2023-04-03T09:29:21;10.23;;;6.67;;
2620;SDS011;1320;48.128;11.592;2023-04-03T09:31:49;10.27;;;6.20;;
2620;SDS011;1320;48.128;11.592;2023-04-03T09:37:42;16.43;;;7.00;;
2620;SDS011;1320;48.128;11.592;2023-04-03T09:42:57;7.97;;;5.93;;
2620;SDS011;1320;48.128;11.592;2023-04-03T09:45:26;9.00;;;4.97;;
2620;SDS011;1320;48.128;11.592;2023-04-03T09:48:36;5.90;;;5.30;;
2620;SDS011;1320;48.128;11.592;2023-04-03T09:55:58;6.67;;;4.87;;
2620;SDS011;1320;48.128;11.592;2023-04-03T10:00:59;13.00;;;5.05;;
2620;SDS011;1320;48.128;11.592;2023-04-03T10:03:27;6.50;;;5.70;;
2620;SDS011;1320;48.128;11.592;2023-04-03T10:06:00;8.10;;;6.10;;
2620;SDS011;1320;48.128;11.592;2023-04-03T10:08:30;9.30;;;6.00;;
2620;SDS011;1320;48.128;11.592;2023-04-03T10:11:06;5.28;;;4.78;;
2620;SDS011;1320;48.128;11.592;2023-04-03T10:13:49;5.28;;;4.75;;
2620;SDS011;1320;48.128;11.592;2023-04-03T10:16:17;8.53;;;5.37;;
2620;SDS011;1320;48.128;11.592;2023-04-03T10:26:39;7.83;;;5.20;;
2620;SDS011;1320;48.128;11.592;2023-04-03T10:34:31;10.10;;;6.00;;
2620;SDS011;1320;48.128;11.592;2023-04-03T10:37:19;6.07;;;4.90;;
2620;SDS011;1320;48.128;11.592;2023-04-03T10:59:16;6.57;;;4.72;;
2620;SDS011;1320;48.128;11.592;2023-04-03T11:04:52;8.95;;;6.35;;
2620;SDS011;1320;48.128;11.592;2023-04-03T11:07:45;6.57;;;4.90;;
2620;SDS011;1320;48.128;11.592;2023-04-03T11:10:12;7.47;;;4.47;;
2620;SDS011;1320;48.128;11.592;2023-04-03T11:12:46;11.50;;;5.15;;
2620;SDS011;1320;48.128;11.592;2023-04-03T11:15:17;5.45;;;4.10;;
2620;SDS011;1320;48.128;11.592;2023-04-03T11:18:02;6.45;;;5.07;;
2620;SDS011;1320;48.128;11.592;2023-04-03T11:20:33;5.15;;;4.30;;
2620;SDS011;1320;48.128;11.592;2023-04-03T11:25:50;6.32;;;4.10;;
2620;SDS011;1320;48.128;11.592;2023-04-03T11:28:19;9.98;;;5.22;;
2620;SDS011;1320;48.128;11.592;2023-04-03T11:30:49;5.68;;;3.92;;
2620;SDS011;1320;48.128;11.592;2023-04-03T11:36:44;5.80;;;3.75;;
2620;SDS011;1320;48.128;11.592;2023-04-03T11:39:24;7.70;;;4.78;;
2620;SDS011;1320;48.128;11.592;2023-04-03T11:42:22;7.10;;;3.50;;
2620;SDS011;1320;48.128;11.592;2023-04-03T11:44:42;7.97;;;3.75;;
2620;SDS011;1320;48.128;11.592;2023-04-03T11:47:09;8.73;;;3.90;;
2620;SDS011;1320;48.128;11.592;2023-04-03T12:16:06;4.10;;;2.60;;
2620;SDS011;1320;48.128;11.592;2023-04-03T12:21:14;6.27;;;2.83;;
2620;SDS011;1320;48.128;11.592;2023-04-03T12:46:36;6.03;;;3.10;;
2620;SDS011;1320;48.128;11.592;2023-04-03T12:51:54;4.33;;;2.47;;
2620;SDS011;1320;48.128;11.592;2023-04-03T12:54:26;4.40;;;2.73;;
2620;SDS011;1320;48.128;11.592;2023-04-03T12:59:55;6.07;;;3.10;;
2620;SDS011;1320;48.128;11.592;2023-04-03T13:02:22;9.60;;;2.70;;
2620;SDS011;1320;48.128;11.592;2023-04-03T13:04:54;4.13;;;2.40;;
2620;SDS011;1320;48.128;11.592;2023-04-03T13:12:45;5.10;;;2.40;;
2620;SDS011;1320;48.128;11.592;2023-04-03T13:15:17;3.90;;;2.40;;
2620;SDS011;1320;48.128;11.592;2023-04-03T13:17:45;6.67;;;2.47;;
2620;SDS011;1320;48.128;11.592;2023-04-03T13:20:34;5.90;;;2.70;;
2620;SDS011;1320;48.128;11.592;2023-04-03T13:23:05;4.00;;;2.37;;
2620;SDS011;1320;48.128;11.592;2023-04-03T13:25:34;4.27;;;2.63;;
2620;SDS011;1320;48.128;11.592;2023-04-03T13:28:04;4.10;;;2.17;;
2620;SDS011;1320;48.128;11.592;2023-04-03T13:30:35;6.03;;;2.90;;
2620;SDS011;1320;48.128;11.592;2023-04-03T13:33:06;6.10;;;3.00;;
2620;SDS011;1320;48.128;11.592;2023-04-03T13:35:46;5.00;;;2.53;;
2620;SDS011;1320;48.128;11.592;2023-04-03T13:40:54;3.40;;;2.10;;
2620;SDS011;1320;48.128;11.592;2023-04-03T13:43:23;6.80;;;2.93;;
2620;SDS011;1320;48.128;11.592;2023-04-03T13:49:09;5.00;;;2.90;;
2620;SDS011;1320;48.128;11.592;2023-04-03T13:51:23;3.43;;;2.40;;
2620;SDS011;1320;48.128;11.592;2023-04-03T13:57:14;7.47;;;2.73;;
2620;SDS011;1320;48.128;11.592;2023-04-03T13:59:40;4.03;;;2.07;;
2620;SDS011;1320;48.128;11.592;2023-04-03T14:02:20;5.20;;;2.80;;
2620;SDS011;1320;48.128;11.592;2023-04-03T14:04:55;3.60;;;2.77;;
2620;SDS011;1320;48.128;11.592;2023-04-03T14:07:25;5.37;;;2.70;;
2620;SDS011;1320;48.128;11.592;2023-04-03T14:09:51;4.17;;;2.53;;
2620;SDS011;1320;48.128;11.592;2023-04-03T14:12:24;3.70;;;2.27;;
2620;SDS011;1320;48.128;11.592;2023-04-03T14:14:52;8.60;;;2.27;;
2620;SDS011;1320;48.128;11.592;2023-04-03T14:17:20;4.17;;;1.83;;
2620;SDS011;1320;48.128;11.592;2023-04-03T14:19:49;3.37;;;1.97;;
2620;SDS011;1320;48.128;11.592;2023-04-03T14:22:24;3.97;;;2.00;;
2620;SDS011;1320;48.128;11.592;2023-04-03T14:24:52;3.60;;;2.07;;
2620;SDS011;1320;48.128;11.592;2023-04-03T14:27:20;4.00;;;2.30;;
2620;SDS011;1320;48.128;11.592;2023-04-03T14:29:48;3.37;;;2.00;;
2620;SDS011;1320;48.128;11.592;2023-04-03T14:32:16;2.83;;;1.40;;
2620;SDS011;1320;48.128;11.592;2023-04-03T14:38:09;7.63;;;2.10;;
2620;SDS011;1320;48.128;11.592;2023-04-03T14:40:55;4.00;;;1.90;;
2620;SDS011;1320;48.128;11.592;2023-04-03T14:43:21;3.40;;;2.17;;
2620;SDS011;1320;48.128;11.592;2023-04-03T14:45:47;4.50;;;2.00;;
2620;SDS011;1320;48.128;11.592;2023-04-03T14:48:21;4.83;;;2.10;;
2620;SDS011;1320;48.128;11.592;2023-04-03T14:50:49;2.97;;;1.90;;
2620;SDS011;1320;48.128;11.592;2023-04-03T14:53:16;2.40;;;1.40;;
2620;SDS011;1320;48.128;11.592;2023-04-03T14:55:44;3.73;;;2.00;;
2620;SDS011;1320;48.128;11.592;2023-04-03T14:58:17;3.40;;;1.97;;
2620;SDS011;1320;48.128;11.592;2023-04-03T15:00:44;3.27;;;2.33;;
2620;SDS011;1320;48.128;11.592;2023-04-03T15:03:18;4.10;;;2.30;;
2620;SDS011;1320;48.128;11.592;2023-04-03T15:05:46;13.77;;;4.77;;
2620;SDS011;1320;48.128;11.592;2023-04-03T15:08:17;4.00;;;2.50;;
2620;SDS011;1320;48.128;11.592;2023-04-03T15:10:45;4.37;;;2.17;;
2620;SDS011;1320;48.128;11.592;2023-04-03T15:13:11;2.43;;;1.70;;
2620;SDS011;1320;48.128;11.592;2023-04-03T15:15:38;4.83;;;2.00;;
2620;SDS011;1320;48.128;11.592;2023-04-03T15:18:04;5.60;;;2.70;;
2620;SDS011;1320;48.128;11.592;2023-04-03T15:20:30;3.37;;;1.80;;
2620;SDS011;1320;48.128;11.592;2023-04-03T15:22:58;3.10;;;1.67;;
2620;SDS011;1320;48.128;11.592;2023-04-03T15:25:26;7.90;;;2.70;;
2620;SDS011;1320;48.128;11.592;2023-04-03T15:27:53;3.17;;;1.87;;
2620;SDS011;1320;48.128;11.592;2023-04-03T15:30:19;3.80;;;1.70;;
2620;SDS011;1320;48.128;11.592;2023-04-03T15:32:45;7.70;;;2.40;;
2620;SDS011;1320;48.128;11.592;2023-04-03T15:35:11;3.40;;;2.20;;
2620;SDS011;1320;48.128;11.592;2023-04-03T15:37:37;4.07;;;2.90;;
2620;SDS011;1320;48.128;11.592;2023-04-03T15:40:04;13.93;;;3.10;;
2620;SDS011;1320;48.128;11.592;2023-04-03T15:42:31;4.50;;;2.37;;
2620;SDS011;1320;48.128;11.592;2023-04-03T15:44:56;3.80;;;1.93;;
2620;SDS011;1320;48.128;11.592;2023-04-03T15:47:22;4.50;;;2.47;;
2620;SDS011;1320;48.128;11.592;2023-04-03T15:49:49;3.73;;;2.40;;
2620;SDS011;1320;48.128;11.592;2023-04-03T15:52:15;3.60;;;1.50;;
2620;SDS011;1320;48.128;11.592;2023-04-03T15:54:40;4.17;;;1.93;;
2620;SDS011;1320;48.128;11.592;2023-04-03T15:57:06;2.50;;;1.60;;
2620;SDS011;1320;48.128;11.592;2023-04-03T15:59:32;2.87;;;1.87;;
2620;SDS011;1320;48.128;11.592;2023-04-03T16:01:57;5.07;;;2.10;;
2620;SDS011;1320;48.128;11.592;2023-04-03T16:04:24;3.57;;;2.30;;
2620;SDS011;1320;48.128;11.592;2023-04-03T16:06:50;7.17;;;2.47;;
2620;SDS011;1320;48.128;11.592;2023-04-03T16:09:15;4.10;;;1.67;;
2620;SDS011;1320;48.128;11.592;2023-04-03T16:11:42;4.27;;;2.00;;
2620;SDS011;1320;48.128;11.592;2023-04-03T16:14:08;2.70;;;1.73;;
2620;SDS011;1320;48.128;11.592;2023-04-03T16:16:34;4.63;;;2.37;;
2620;SDS011;1320;48.128;11.592;2023-04-03T16:19:00;3.83;;;2.10;;
2620;SDS011;1320;48.128;11.592;2023-04-03T16:21:26;8.37;;;3.13;;
2620;SDS011;1320;48.128;11.592;2023-04-03T16:23:52;3.97;;;2.10;;
2620;SDS011;1320;48.128;11.592;2023-04-03T16:26:18;3.70;;;2.07;;
2620;SDS011;1320;48.128;11.592;2023-04-03T16:28:45;2.77;;;1.77;;
2620;SDS011;1320;48.128;11.592;2023-04-03T16:31:10;4.90;;;2.10;;
2620;SDS011;1320;48.128;11.592;2023-04-03T16:33:36;5.90;;;2.33;;
2620;SDS011;1320;48.128;11.592;2023-04-03T16:36:03;6.37;;;2.33;;
2620;SDS011;1320;48.128;11.592;2023-04-03T16:38:29;3.90;;;2.37;;
2620;SDS011;1320;48.128;11.592;2023-04-03T16:40:55;4.53;;;2.47;;
2620;SDS011;1320;48.128;11.592;2023-04-03T16:43:28;3.07;;;1.90;;
2620;SDS011;1320;48.128;11.592;2023-04-03T16:45:55;5.03;;;2.27;;
2620;SDS011;1320;48.128;11.592;2023-04-03T16:48:21;3.03;;;1.90;;
2620;SDS011;1320;48.128;11.592;2023-04-03T16:50:47;4.70;;;2.63;;
2620;SDS011;1320;48.128;11.592;2023-04-03T16:53:14;3.57;;;2.53;;
2620;SDS011;1320;48.128;11.592;2023-04-03T16:55:40;8.13;;;2.73;;
2620;SDS011;1320;48.128;11.592;2023-04-03T16:58:05;5.43;;;2.10;;
2620;SDS011;1320;48.128;11.592;2023-04-03T17:00:32;3.40;;;2.40;;
2620;SDS011;1320;48.128;11.592;2023-04-03T17:02:59;3.93;;;2.40;;
2620;SDS011;1320;48.128;11.592;2023-04-03T17:05:24;3.50;;;2.23;;
2620;SDS011;1320;48.128;11.592;2023-04-03T17:07:50;5.90;;;2.93;;
2620;SDS011;1320;48.128;11.592;2023-04-03T17:10:16;4.20;;;2.30;;
2620;SDS011;1320;48.128;11.592;2023-04-03T17:12:42;3.93;;;2.30;;
2620;SDS011;1320;48.128;11.592;2023-04-03T17:15:07;4.37;;;2.13;;
2620;SDS011;1320;48.128;11.592;2023-04-03T17:17:34;3.13;;;2.00;;
2620;SDS011;1320;48.128;11.592;2023-04-03T17:20:00;4.25;;;2.17;;
2620;SDS011;1320;48.128;11.592;2023-04-03T17:22:27;3.50;;;2.30;;
2620;SDS011;1320;48.128;11.592;2023-04-03T17:24:53;5.50;;;2.33;;
2620;SDS011;1320;48.128;11.592;2023-04-03T17:27:19;3.30;;;2.57;;
2620;SDS011;1320;48.128;11.592;2023-04-03T17:29:45;3.60;;;2.15;;
2620;SDS011;1320;48.128;11.592;2023-04-03T17:32:11;4.23;;;2.77;;
2620;SDS011;1320;48.128;11.592;2023-04-03T17:34:36;4.90;;;3.03;;
2620;SDS011;1320;48.128;11.592;2023-04-03T17:37:02;4.20;;;2.58;;
2620;SDS011;1320;48.128;11.592;2023-04-03T17:39:28;3.63;;;2.37;;
2620;SDS011;1320;48.128;11.592;2023-04-03T17:41:54;5.30;;;2.67;;
2620;SDS011;1320;48.128;11.592;2023-04-03T17:44:20;4.13;;;2.33;;